Time;durP1;ratioP1;P1;durP2;ratioP2;P2;SDS_P1;SDS_P2;PMS_P1;PMS_P2;Temp;Humidity;BMP_temperature;BMP_pressure;BME280_temperature;BME280_humidity;BME280_pressure;Samples;Min_cycle;Max_cycle;Signal;HPM_P1;HPM_P2
2022/08/17 00:03:32;;;;;;;12.10;7.88;;;;;;;21.91;69.68;101250.72;10607769;28;20047;-75
2022/08/17 00:08:41;;;;;;;11.00;7.07;;;;;;;21.87;69.40;101252.59;10574015;28;20630;-75
2022/08/17 00:13:47;;;;;;;10.77;8.00;;;;;;;21.77;68.96;101251.00;10608856;28;20433;-75
2022/08/17 00:18:50;;;;;;;12.10;9.00;;;;;;;21.68;69.79;101258.63;10589817;28;20046;-76
2022/08/17 00:23:53;;;;;;;12.48;8.15;;;;;;;21.57;70.36;101252.66;10611186;28;20040;-75
2022/08/17 00:28:56;;;;;;;12.07;8.15;;;;;;;21.49;70.78;101247.13;10591774;28;20039;-75
2022/08/17 00:33:59;;;;;;;12.65;7.68;;;;;;;21.50;70.20;101251.53;10585806;28;20039;-75
2022/08/17 00:39:01;;;;;;;15.93;9.13;;;;;;;21.49;70.38;101255.50;10621457;27;20044;-75
2022/08/17 00:44:04;;;;;;;14.48;8.07;;;;;;;21.43;71.21;101251.28;10561503;28;20046;-75
2022/08/17 00:49:09;;;;;;;12.35;8.07;;;;;;;21.35;70.91;101239.84;10596298;28;20036;-75
2022/08/17 00:54:15;;;;;;;11.18;7.88;;;;;;;21.32;70.99;101250.84;10567603;28;20027;-76
2022/08/17 00:59:20;;;;;;;12.63;7.88;;;;;;;21.25;71.59;101250.59;10608844;28;20515;-75
2022/08/17 01:04:23;;;;;;;14.77;7.95;;;;;;;21.44;71.38;101250.13;10598355;28;20050;-75
2022/08/17 01:09:26;;;;;;;13.05;7.47;;;;;;;21.41;70.62;101242.44;10563254;28;20047;-75
2022/08/17 01:14:31;;;;;;;13.25;7.70;;;;;;;21.34;71.06;101229.81;10563144;28;20502;-74
2022/08/17 01:19:36;;;;;;;12.00;8.07;;;;;;;21.25;71.66;101234.66;10549929;28;20047;-75
2022/08/17 01:24:42;;;;;;;10.70;6.82;;;;;;;21.26;72.11;101241.06;10589986;28;20039;-74
2022/08/17 01:29:49;;;;;;;10.38;6.43;;;;;;;21.23;71.92;101222.16;10575938;28;20516;-75
2022/08/17 01:34:52;;;;;;;11.50;7.50;;;;;;;21.21;71.74;101225.31;10581195;28;20516;-74
2022/08/17 01:40:04;;;;;;;10.88;7.10;;;;;;;21.23;71.63;101216.59;10626138;27;20043;-74
2022/08/17 01:45:11;;;;;;;10.63;6.88;;;;;;;21.17;71.33;101221.53;10601445;28;20368;-74
2022/08/17 01:50:18;;;;;;;12.23;6.75;;;;;;;21.16;71.18;101224.66;10569955;28;20486;-74
2022/08/17 01:55:26;;;;;;;11.05;6.35;;;;;;;21.18;71.55;101217.63;10566206;28;20039;-74
2022/08/17 02:00:29;;;;;;;12.65;6.85;;;;;;;21.19;71.85;101207.25;10590801;28;20047;-74
2022/08/17 02:05:32;;;;;;;11.13;7.13;;;;;;;21.20;71.29;101203.31;10579892;28;20502;-74
2022/08/17 02:10:34;;;;;;;12.35;6.75;;;;;;;21.18;71.94;101200.88;10581054;28;20497;-75
2022/08/17 02:15:37;;;;;;;8.20;6.40;;;;;;;21.13;71.57;101203.00;10609084;28;20512;-75
2022/08/17 02:20:41;;;;;;;10.95;6.03;;;;;;;21.11;71.84;101210.91;10613365;28;20496;-74
2022/08/17 02:25:44;;;;;;;7.28;5.85;;;;;;;21.14;72.02;101224.19;10559131;28;20031;-75
2022/08/17 02:30:46;;;;;;;10.63;6.38;;;;;;;21.08;72.65;101220.78;10617013;28;20062;-74
2022/08/17 02:35:49;;;;;;;11.07;7.28;;;;;;;21.09;71.70;101211.25;10607063;28;20048;-74
2022/08/17 02:40:51;;;;;;;12.63;6.60;;;;;;;20.96;72.14;101212.31;10616069;28;20039;-74
2022/08/17 02:45:53;;;;;;;9.25;6.50;;;;;;;20.93;72.21;101211.03;10608220;28;20130;-74
2022/08/17 02:50:56;;;;;;;11.23;6.53;;;;;;;20.92;72.42;101203.00;10630355;27;20039;-75
2022/08/17 02:55:58;;;;;;;10.80;6.78;;;;;;;20.88;73.09;101202.03;10608136;27;20035;-74
2022/08/17 03:01:00;;;;;;;10.02;6.35;;;;;;;20.83;72.78;101200.28;10601926;28;20043;-74
2022/08/17 03:06:03;;;;;;;9.52;6.82;;;;;;;21.13;73.06;101203.84;10589188;28;20040;-74
2022/08/17 03:11:05;;;;;;;8.88;6.55;;;;;;;21.22;72.15;101198.22;10610411;28;20043;-74
2022/08/17 03:16:07;;;;;;;8.85;6.40;;;;;;;21.38;71.72;101202.06;10587606;28;20055;-74
2022/08/17 03:21:10;;;;;;;10.00;6.32;;;;;;;21.45;71.46;101193.13;10603112;28;20566;-74
2022/08/17 03:26:12;;;;;;;8.70;6.45;;;;;;;21.74;71.13;101204.22;10612035;28;20409;-75
2022/08/17 03:31:14;;;;;;;11.63;6.85;;;;;;;22.04;69.70;101206.84;10609188;28;20055;-74
2022/08/17 03:36:16;;;;;;;12.82;6.35;;;;;;;22.02;69.59;101212.78;10562514;28;20052;-74
2022/08/17 03:41:19;;;;;;;13.50;6.68;;;;;;;21.96;69.03;101203.81;10612325;28;20046;-74
2022/08/17 03:57:03;;;;;;;9.43;6.20;;;;;;;22.17;68.23;101216.94;10608682;28;20409;-75
2022/08/17 04:02:17;;;;;;;8.95;6.35;;;;;;;22.38;67.92;101214.06;10590561;28;20047;-74
2022/08/17 04:07:21;;;;;;;12.15;6.45;;;;;;;22.62;66.83;101213.28;10572416;28;20046;-74
2022/08/17 04:12:29;;;;;;;7.63;5.57;;;;;;;23.07;66.86;101216.78;10578193;28;20043;-74
2022/08/17 04:17:31;;;;;;;10.05;5.55;;;;;;;23.59;64.00;101220.78;10599765;28;20505;-74
2022/08/17 04:22:33;;;;;;;11.15;5.70;;;;;;;24.16;62.44;101220.44;10603852;28;20054;-74
2022/08/17 04:27:36;;;;;;;8.68;5.50;;;;;;;24.50;60.90;101216.16;10609057;27;20373;-74
2022/08/17 04:33:01;;;;;;;7.00;5.60;;;;;;;24.93;59.98;101218.03;10562502;28;20048;-74
2022/08/17 04:38:04;;;;;;;8.15;5.60;;;;;;;25.41;59.32;101213.13;10577932;28;20043;-75
2022/08/17 04:43:15;;;;;;;8.43;5.85;;;;;;;25.74;56.80;101211.84;10588266;28;20036;-74
2022/08/17 04:48:17;;;;;;;6.63;4.88;;;;;;;25.80;56.64;101213.97;10553109;28;20455;-74
2022/08/17 04:53:20;;;;;;;7.18;5.07;;;;;;;26.10;55.44;101207.72;10571367;28;20047;-74
2022/08/17 04:58:22;;;;;;;9.65;5.93;;;;;;;26.33;54.59;101202.94;10561006;28;20051;-74
2022/08/17 05:03:25;;;;;;;8.77;5.45;;;;;;;26.66;54.14;101207.94;10595401;28;20486;-75
2022/08/17 05:08:27;;;;;;;8.07;5.57;;;;;;;26.51;53.80;101200.44;10594590;28;20043;-74
2022/08/17 05:13:29;;;;;;;6.22;5.05;;;;;;;26.59;53.99;101192.97;10608719;28;20448;-75
2022/08/17 05:18:32;;;;;;;9.60;4.68;;;;;;;26.77;53.26;101191.25;10564679;28;20035;-74
2022/08/17 05:23:35;;;;;;;9.27;5.20;;;;;;;27.24;52.47;101195.56;10553523;28;20431;-74
2022/08/17 05:28:37;;;;;;;7.90;5.00;;;;;;;27.22;51.98;101189.50;10604592;28;20391;-75
2022/08/17 05:33:41;;;;;;;7.15;5.10;;;;;;;27.55;50.83;101194.38;10580619;28;20564;-77
2022/08/17 05:38:43;;;;;;;7.20;4.82;;;;;;;27.76;50.47;101189.03;10580307;28;20047;-77
2022/08/17 05:43:45;;;;;;;5.78;4.47;;;;;;;28.08;49.72;101199.84;10589452;28;20471;-77
2022/08/17 05:48:59;;;;;;;6.95;4.55;;;;;;;28.50;48.75;101188.22;10605279;28;20412;-77
2022/08/17 05:54:23;;;;;;;8.55;5.30;;;;;;;28.60;48.80;101190.28;10608180;28;20410;-77
2022/08/17 05:59:35;;;;;;;9.13;5.57;;;;;;;28.83;49.09;101190.91;10585467;28;20031;-78
2022/08/17 06:05:06;;;;;;;8.90;6.13;;;;;;;28.73;49.25;101196.44;10562547;28;20055;-77
2022/08/17 06:10:30;;;;;;;10.82;7.10;;;;;;;28.86;48.82;101194.97;10585235;28;20043;-77
2022/08/17 06:15:54;;;;;;;11.70;6.38;;;;;;;28.60;49.35;101200.78;10589709;28;20044;-77
2022/08/17 06:20:59;;;;;;;9.80;5.88;;;;;;;28.74;48.57;101204.53;10558920;28;20035;-74
2022/08/17 06:26:25;;;;;;;9.27;6.20;;;;;;;28.93;48.24;101197.84;10592391;28;20028;-74
2022/08/17 06:31:33;;;;;;;7.13;5.80;;;;;;;28.73;48.37;101197.25;10560455;28;20047;-74
2022/08/17 06:36:45;;;;;;;10.45;5.60;;;;;;;28.73;49.05;101207.75;10572034;28;20536;-75
2022/08/17 06:42:08;;;;;;;6.63;4.75;;;;;;;28.87;48.31;101213.53;10607840;28;20505;-75
2022/08/17 06:47:21;;;;;;;8.00;4.90;;;;;;;29.10;48.09;101205.63;10588296;28;20036;-78
2022/08/17 06:52:28;;;;;;;9.77;5.25;;;;;;;29.30;47.55;101200.47;10608357;28;20039;-74
2022/08/17 06:57:36;;;;;;;9.68;4.97;;;;;;;29.72;47.04;101207.59;10575221;28;20039;-75
2022/08/17 07:03:23;;;;;;;9.55;4.82;;;;;;;29.75;46.53;101212.44;10593306;28;20043;-74
2022/08/17 07:08:48;;;;;;;9.70;4.40;;;;;;;29.60;47.07;101214.41;10430777;28;20038;-75
2022/08/17 07:14:22;;;;;;;6.85;4.93;;;;;;;29.69;47.12;101219.69;10583507;28;20051;-74
2022/08/17 07:19:26;;;;;;;;;;;;;;;29.77;46.44;101220.53;10608854;28;20039;-74
2022/08/17 07:24:40;;;;;;;7.63;4.72;;;;;;;29.87;47.08;101211.28;10614318;28;19930;-74
2022/08/17 07:29:52;;;;;;;7.65;4.00;;;;;;;30.13;46.06;101233.59;10614040;28;20406;-74
2022/08/17 07:34:59;;;;;;;6.25;4.78;;;;;;;30.23;45.47;101212.19;10610881;28;20039;-77
2022/08/17 07:40:22;;;;;;;6.70;4.32;;;;;;;30.56;45.02;101228.84;10614789;28;20039;-77
2022/08/17 07:50:46;;;;;;;8.10;4.93;;;;;;;30.93;44.10;101232.50;10597497;28;20655;-77
2022/08/17 07:55:50;;;;;;;7.03;4.78;;;;;;;31.17;43.53;101220.28;10593163;28;20043;-76
2022/08/17 08:01:08;;;;;;;6.82;4.72;;;;;;;30.80;43.43;101224.41;10609781;28;20043;-75
2022/08/17 08:06:23;;;;;;;7.68;5.10;;;;;;;30.92;43.91;101225.22;10603357;27;20051;-75
2022/08/17 08:11:33;;;;;;;;;;;;;;;31.35;43.08;101218.25;10514459;28;20040;-76
2022/08/17 08:16:36;;;;;;;10.95;4.45;;;;;;;31.61;42.95;101221.81;10602344;28;19919;-75
2022/08/17 08:21:48;;;;;;;8.82;4.35;;;;;;;31.87;42.17;101232.66;10608506;28;20505;-76
2022/08/17 08:26:57;;;;;;;10.07;4.70;;;;;;;31.82;42.27;101224.59;10591964;27;20043;-76
2022/08/17 08:32:13;;;;;;;7.10;4.85;;;;;;;31.96;42.32;101229.38;10573941;28;20042;-76
2022/08/17 08:37:20;;;;;;;11.50;5.75;;;;;;;32.29;42.04;101222.31;10604280;28;20032;-75
2022/08/17 08:42:44;;;;;;;13.07;5.20;;;;;;;32.54;41.07;101231.47;10589457;28;20051;-75
2022/08/17 08:47:52;;;;;;;7.88;4.85;;;;;;;32.45;41.00;101233.94;10595818;28;20046;-75
2022/08/17 08:53:20;;;;;;;10.90;4.57;;;;;;;32.34;40.81;101231.22;10578518;28;20027;-75
2022/08/17 08:58:28;;;;;;;7.45;4.40;;;;;;;32.46;40.37;101237.63;10613378;28;20043;-75
2022/08/17 09:03:30;;;;;;;9.20;4.78;;;;;;;32.23;40.49;101226.78;10613139;28;20058;-75
2022/08/17 09:09:00;;;;;;;10.32;4.60;;;;;;;32.21;40.63;101209.34;10577844;28;20044;-75
2022/08/17 09:14:13;;;;;;;15.90;4.70;;;;;;;32.39;40.27;101216.56;10610684;28;20052;-74
2022/08/17 09:19:18;;;;;;;6.97;4.25;;;;;;;32.61;39.97;101214.34;10593286;28;20099;-75
2022/08/17 09:24:32;;;;;;;6.35;4.40;;;;;;;32.81;39.14;101210.97;10611397;28;20052;-74
2022/08/17 09:29:39;;;;;;;8.88;4.63;;;;;;;32.32;39.15;101215.81;10594604;28;20050;-74
2022/08/17 09:34:58;;;;;;;4.68;3.63;;;;;;;31.73;39.87;101205.16;10574328;28;20785;-74
2022/08/17 09:40:17;;;;;;;6.97;4.20;;;;;;;31.22;40.10;101219.91;10601389;27;20038;-75
2022/08/17 09:45:29;;;;;;;7.00;3.55;;;;;;;30.66;40.06;101203.75;10619180;27;20058;-75
2022/08/17 09:50:51;;;;;;;7.97;3.53;;;;;;;30.42;40.82;101205.34;10618978;27;20062;-75
2022/08/17 09:56:11;;;;;;;4.13;3.72;;;;;;;30.05;41.38;101205.69;10654249;28;20055;-74
2022/08/17 10:01:19;;;;;;;5.80;3.80;;;;;;;29.97;42.21;101196.34;10635822;28;20050;-75
2022/08/17 10:06:32;;;;;;;6.10;3.95;;;;;;;29.83;42.11;101199.13;10653796;28;20051;-75
2022/08/17 10:17:21;;;;;;;8.85;5.82;;;;;;;29.67;42.75;101183.31;10568889;28;20044;-74
2022/08/17 10:27:51;;;;;;;;;;;;;;;29.38;43.46;101181.56;10554625;28;20048;-74
2022/08/17 10:32:58;;;;;;;7.60;4.05;;;;;;;29.34;43.24;101181.53;10550459;28;19920;-75
2022/08/17 10:38:18;;;;;;;;;;;;;;;29.40;43.48;101179.13;10576738;28;20050;-74
2022/08/17 10:43:33;;;;;;;6.75;4.15;;;;;;;29.49;42.77;101182.44;10558183;28;19919;-75
2022/08/17 10:48:37;;;;;;;6.07;4.10;;;;;;;29.45;42.63;101167.44;10558194;28;20043;-74
2022/08/17 10:53:42;;;;;;;4.25;3.70;;;;;;;29.53;42.67;101176.81;10575944;28;20046;-75
2022/08/17 10:58:52;;;;;;;3.67;2.88;;;;;;;29.56;42.39;101171.16;10575510;28;20036;-74
2022/08/17 11:03:56;;;;;;;3.38;2.90;;;;;;;29.38;41.85;101164.59;10575718;28;20039;-74
2022/08/17 11:09:05;;;;;;;4.80;3.40;;;;;;;29.29;42.22;101162.09;10559388;28;20151;-74
2022/08/17 11:14:08;;;;;;;3.33;2.97;;;;;;;29.34;43.06;101163.78;10613480;28;20048;-75
2022/08/17 11:19:35;;;;;;;4.25;3.55;;;;;;;29.28;42.43;101165.34;10598894;28;20055;-74
2022/08/17 11:24:46;;;;;;;6.32;3.28;;;;;;;29.24;41.96;101170.16;10616717;28;20040;-74
2022/08/17 11:30:02;;;;;;;4.80;3.38;;;;;;;29.26;41.93;101173.41;10598290;28;20032;-75
2022/08/17 11:35:20;;;;;;;6.93;3.50;;;;;;;29.23;42.80;101168.56;10614350;28;20054;-75
2022/08/17 11:40:46;;;;;;;10.27;3.83;;;;;;;29.23;42.89;101175.00;10597713;28;20040;-75
2022/08/17 11:45:54;;;;;;;5.45;3.40;;;;;;;29.16;42.50;101165.66;10597648;28;20042;-75
2022/08/17 11:51:34;;;;;;;4.10;3.22;;;;;;;29.19;42.61;101164.91;10615977;28;20512;-75
2022/08/17 11:56:46;;;;;;;6.95;3.78;;;;;;;29.20;42.60;101170.16;10578963;28;20528;-75
2022/08/17 12:01:51;;;;;;;7.30;2.30;;;;;;;29.19;42.44;101162.88;10580585;28;20520;-75
2022/08/17 12:06:58;;;;;;;7.03;4.03;;;;;;;29.17;42.31;101168.13;10597446;28;20035;-74
2022/08/17 12:12:09;;;;;;;8.57;4.00;;;;;;;29.15;43.13;101166.88;10549268;28;20047;-75
2022/08/17 12:17:13;;;;;;;4.35;3.35;;;;;;;29.05;42.37;101163.59;10554600;28;20048;-75
2022/08/17 12:22:25;;;;;;;7.25;3.35;;;;;;;29.06;42.68;101161.59;10537695;28;20395;-75
2022/08/17 12:27:35;;;;;;;4.05;3.40;;;;;;;29.07;42.43;101160.38;10537862;28;20043;-75
2022/08/17 12:32:39;;;;;;;8.32;3.50;;;;;;;29.11;42.22;101162.03;10613746;28;20040;-75
2022/08/17 12:37:44;;;;;;;4.88;3.13;;;;;;;29.07;41.91;101155.53;10594183;28;20039;-75
2022/08/17 12:43:05;;;;;;;10.25;3.40;;;;;;;29.05;41.30;101160.78;10593413;28;21703;-75
2022/08/17 12:48:12;;;;;;;6.38;3.50;;;;;;;29.07;41.68;101149.91;10574160;28;20031;-75
2022/08/17 12:53:23;;;;;;;3.45;3.13;;;;;;;29.14;41.80;101151.94;10607054;28;20044;-76
2022/08/17 12:58:46;;;;;;;3.78;3.38;;;;;;;29.18;41.37;101154.81;10607434;27;20031;-75
2022/08/17 13:03:50;;;;;;;7.20;3.95;;;;;;;29.19;40.67;101145.13;10585317;28;20039;-75
2022/08/17 13:08:52;;;;;;;4.40;3.33;;;;;;;29.17;40.32;101141.88;10577614;28;20054;-75
2022/08/17 13:13:55;;;;;;;4.40;3.30;;;;;;;29.20;40.78;101138.25;10606274;28;20524;-76
2022/08/17 13:19:08;;;;;;;4.07;3.25;;;;;;;29.13;40.44;101136.19;10589839;28;20028;-77
2022/08/17 13:24:10;;;;;;;7.10;3.47;;;;;;;29.10;40.58;101126.50;10579793;28;20051;-75
2022/08/17 13:29:27;;;;;;;5.35;3.60;;;;;;;29.16;39.94;101126.94;10579959;28;20044;-75
2022/08/17 13:34:32;;;;;;;6.75;3.70;;;;;;;29.20;40.44;101129.78;10554435;28;20043;-76
2022/08/17 13:39:40;;;;;;;4.30;3.40;;;;;;;29.20;40.40;101133.41;10596493;28;20039;-75
2022/08/17 13:44:42;;;;;;;5.47;3.60;;;;;;;29.19;40.64;101130.97;10609872;28;20043;-76
2022/08/17 13:49:44;;;;;;;5.68;3.55;;;;;;;29.18;39.92;101135.03;10587529;28;20035;-74
2022/08/17 13:54:49;;;;;;;7.18;3.70;;;;;;;29.14;40.48;101134.97;10607089;28;20054;-75
2022/08/17 14:00:09;;;;;;;7.13;3.85;;;;;;;29.15;40.00;101130.13;10606489;28;20047;-74
2022/08/17 14:05:11;;;;;;;6.05;3.42;;;;;;;29.16;40.29;101131.75;10589762;28;20445;-74
2022/08/17 14:10:18;;;;;;;5.15;3.72;;;;;;;29.13;40.17;101131.34;10603041;27;20040;-74
2022/08/17 14:15:22;;;;;;;4.18;3.30;;;;;;;29.04;40.32;101136.56;10593411;28;20055;-75
2022/08/17 14:20:24;;;;;;;7.35;4.05;;;;;;;28.94;40.33;101145.78;10600606;28;20465;-75
2022/08/17 14:25:28;;;;;;;6.28;3.88;;;;;;;28.93;40.29;101132.84;10585387;28;20051;-76
2022/08/17 14:30:30;;;;;;;3.80;3.40;;;;;;;28.94;40.04;101123.16;10615193;28;20039;-75
2022/08/17 14:35:33;;;;;;;4.55;3.42;;;;;;;28.92;40.14;101125.59;10596133;28;20062;-75
2022/08/17 14:40:36;;;;;;;6.40;3.67;;;;;;;28.89;40.56;101117.91;10593385;28;20047;-76
2022/08/17 14:45:40;;;;;;;5.95;3.53;;;;;;;28.86;40.32;101115.03;10595224;28;20055;-76
2022/08/17 14:50:43;;;;;;;5.72;3.67;;;;;;;28.82;40.30;101115.00;10604411;28;20047;-75
2022/08/17 14:55:45;;;;;;;7.30;4.57;;;;;;;28.78;40.35;101112.16;10597484;28;20810;-75
2022/08/17 15:00:49;;;;;;;5.90;4.15;;;;;;;28.76;39.67;101105.28;10606731;27;20055;-78
2022/08/17 15:05:53;;;;;;;5.10;4.18;;;;;;;28.74;40.09;101104.88;10613582;28;20541;-78
2022/08/17 15:10:55;;;;;;;6.75;4.28;;;;;;;28.72;40.46;101093.16;10589457;28;20039;-77
2022/08/17 15:16:01;;;;;;;7.97;4.53;;;;;;;28.69;40.05;101093.94;10588500;28;20040;-77
2022/08/17 15:21:04;;;;;;;6.60;4.38;;;;;;;28.64;39.72;101092.31;10606942;27;20039;-77
2022/08/17 15:26:07;;;;;;;7.88;5.28;;;;;;;28.60;40.17;101096.28;10573950;28;20406;-76
2022/08/17 15:31:09;;;;;;;5.70;4.65;;;;;;;28.57;39.40;101091.44;10611670;28;20035;-76
2022/08/17 15:36:11;;;;;;;7.60;5.70;;;;;;;28.57;39.52;101099.91;10592649;27;20042;-76
2022/08/17 15:41:16;;;;;;;9.85;6.22;;;;;;;28.52;40.12;101103.91;10601460;27;20460;-76
2022/08/17 15:46:23;;;;;;;8.45;7.10;;;;;;;28.48;40.08;101101.06;10596864;27;20042;-77
2022/08/17 15:51:31;;;;;;;12.07;6.70;;;;;;;28.43;40.51;101104.25;10610933;28;20055;-78
2022/08/17 15:56:33;;;;;;;10.55;8.15;;;;;;;28.40;41.12;101105.03;10588723;28;20409;-79
2022/08/17 16:01:35;;;;;;;14.77;10.10;;;;;;;28.35;41.32;101110.25;10588774;28;20075;-78
2022/08/17 16:06:38;;;;;;;14.52;9.55;;;;;;;28.30;41.17;101100.13;10574129;28;20567;-78
2022/08/17 16:11:41;;;;;;;15.93;9.98;;;;;;;28.29;41.35;101104.16;10599839;28;20051;-78
2022/08/17 16:16:44;;;;;;;14.13;9.60;;;;;;;28.26;41.98;101107.75;10567883;28;20047;-78
2022/08/17 16:21:46;;;;;;;17.88;12.48;;;;;;;28.20;41.21;101100.81;10584096;28;20047;-78
2022/08/17 16:26:48;;;;;;;17.30;13.48;;;;;;;28.15;41.84;101107.63;10604808;28;20043;-77
2022/08/17 16:31:51;;;;;;;20.60;14.57;;;;;;;28.07;41.04;101102.31;10610530;28;20031;-76
2022/08/17 16:36:54;;;;;;;20.65;14.48;;;;;;;28.00;41.32;101105.88;10595961;28;20036;-74
2022/08/17 16:41:56;;;;;;;16.90;12.65;;;;;;;27.89;42.49;101108.59;10610257;28;20043;-76
2022/08/17 16:47:00;;;;;;;23.02;15.77;;;;;;;27.84;42.06;101108.13;10583727;28;20054;-78
2022/08/17 16:52:04;;;;;;;22.20;15.65;;;;;;;27.77;41.98;101114.53;10585827;28;20044;-75
2022/08/17 16:57:06;;;;;;;21.17;14.90;;;;;;;27.73;42.22;101115.66;10591041;28;20031;-75
2022/08/17 17:02:09;;;;;;;25.00;15.68;;;;;;;27.68;42.31;101113.19;10589383;28;20058;-75
2022/08/17 17:07:33;;;;;;;21.02;15.48;;;;;;;27.63;42.19;101118.00;10611146;28;20032;-75
2022/08/17 17:12:38;;;;;;;23.48;16.05;;;;;;;27.57;43.09;101119.50;10599957;27;20054;-76
2022/08/17 17:17:41;;;;;;;21.38;16.25;;;;;;;27.52;42.77;101124.66;10568862;28;20047;-75
2022/08/17 17:22:58;;;;;;;19.33;15.32;;;;;;;27.44;43.17;101135.06;10606639;28;20643;-74
2022/08/17 17:28:04;;;;;;;;;;;;;;;27.38;43.74;101130.94;10594716;28;20409;-75
2022/08/17 17:33:13;;;;;;;20.35;13.90;;;;;;;27.34;43.42;101139.34;10591449;28;19919;-75
2022/08/17 17:38:43;;;;;;;20.55;15.40;;;;;;;27.27;44.06;101142.09;10574811;28;20502;-76
2022/08/17 17:43:49;;;;;;;21.55;14.40;;;;;;;27.23;43.57;101143.22;10572193;28;20043;-76
2022/08/17 17:48:51;;;;;;;21.13;15.57;;;;;;;27.17;44.17;101145.56;10571567;28;20488;-75
2022/08/17 17:54:06;;;;;;;19.88;15.25;;;;;;;27.10;44.11;101139.84;10610116;28;20055;-75
2022/08/17 17:59:14;;;;;;;22.10;16.02;;;;;;;27.02;45.00;101135.31;10592701;28;20489;-75
2022/08/17 18:04:16;;;;;;;25.17;16.13;;;;;;;26.94;45.25;101148.44;10592668;28;20039;-76
2022/08/17 18:10:04;;;;;;;21.30;14.98;;;;;;;26.86;45.63;101155.16;10581185;28;20035;-75
2022/08/17 18:15:21;;;;;;;19.40;14.70;;;;;;;26.78;44.47;101153.44;10553572;28;20047;-76
2022/08/17 18:20:23;;;;;;;18.27;13.80;;;;;;;26.69;45.94;101148.06;10610091;28;20044;-76
2022/08/17 18:25:43;;;;;;;23.20;15.70;;;;;;;26.58;45.34;101149.91;10609462;28;20056;-78
2022/08/17 18:31:06;;;;;;;23.50;15.95;;;;;;;26.50;46.32;101159.44;10592959;28;20068;-77
2022/08/17 18:36:10;;;;;;;24.55;15.73;;;;;;;26.42;46.17;101149.25;10576190;28;20036;-77
2022/08/17 18:41:19;;;;;;;24.92;16.13;;;;;;;26.32;47.74;101156.28;10592741;28;20044;-78
2022/08/17 18:46:35;;;;;;;24.92;15.60;;;;;;;26.22;47.54;101156.94;10614464;28;20046;-77
2022/08/17 18:51:41;;;;;;;23.63;16.37;;;;;;;26.11;49.32;101158.72;10573443;28;20032;-77
2022/08/17 18:56:54;;;;;;;22.45;14.93;;;;;;;25.99;49.42;101159.72;10584090;28;20044;-77
2022/08/17 19:02:06;;;;;;;26.95;15.30;;;;;;;25.91;49.06;101159.97;10572887;28;20035;-77
2022/08/17 19:07:18;;;;;;;23.20;14.68;;;;;;;25.83;49.77;101165.44;10615158;28;20046;-77
2022/08/17 19:12:25;;;;;;;24.30;16.17;;;;;;;25.75;50.25;101165.69;10617562;28;20418;-77
2022/08/17 19:17:34;;;;;;;23.00;15.40;;;;;;;25.66;51.73;101160.25;10571019;28;20052;-78
2022/08/17 19:22:48;;;;;;;24.42;16.30;;;;;;;25.58;51.23;101168.91;10588262;28;20048;-77
2022/08/17 19:28:07;;;;;;;25.80;15.50;;;;;;;25.48;52.28;101159.06;10617455;28;20043;-78
2022/08/17 19:33:09;;;;;;;22.52;15.43;;;;;;;25.41;52.19;101154.13;10598549;28;20040;-77
2022/08/17 19:38:30;;;;;;;26.02;15.32;;;;;;;25.36;52.23;101165.66;10580328;28;20100;-77
2022/08/17 19:43:35;;;;;;;26.35;15.35;;;;;;;25.31;52.96;101167.94;10599282;27;20043;-82
2022/08/17 19:48:55;;;;;;;25.63;16.35;;;;;;;25.25;52.99;101171.03;10613171;27;20042;-78
2022/08/17 19:54:29;;;;;;;28.55;16.55;;;;;;;25.20;53.25;101168.53;10586764;27;20066;-79
2022/08/17 19:59:47;;;;;;;27.00;15.93;;;;;;;25.17;53.20;101168.47;10590136;28;20043;-79
2022/08/17 20:04:52;;;;;;;25.80;16.63;;;;;;;25.10;53.46;101169.09;10553921;28;20048;-79
2022/08/17 20:10:02;;;;;;;21.35;14.52;;;;;;;25.06;53.85;101173.00;10573529;28;20052;-82
2022/08/17 20:15:09;;;;;;;27.15;15.40;;;;;;;25.04;53.77;101181.00;10569883;28;20047;-80
2022/08/17 20:20:15;;;;;;;;;;;;;;;25.01;54.39;101176.94;10590715;28;20038;-79
2022/08/17 20:25:24;;;;;;;23.83;15.30;;;;;;;25.00;53.82;101182.91;10605373;28;19926;-79
2022/08/17 20:30:39;;;;;;;24.33;16.67;;;;;;;24.95;54.04;101184.78;10584739;28;20055;-78
2022/08/17 20:36:01;;;;;;;24.20;16.98;;;;;;;24.88;54.55;101184.63;10603878;28;20383;-79
2022/08/17 20:41:03;;;;;;;22.70;15.05;;;;;;;24.83;54.28;101192.50;10591826;28;20064;-80
2022/08/17 20:46:20;;;;;;;25.77;16.25;;;;;;;24.76;55.71;101193.13;10609852;28;20044;-81
2022/08/17 20:51:30;;;;;;;28.83;16.60;;;;;;;24.71;56.05;101196.22;10606452;28;20032;-81
2022/08/17 20:56:45;;;;;;;27.27;15.50;;;;;;;24.63;56.05;101202.84;10603919;27;20039;-80
2022/08/17 21:02:05;;;;;;;30.85;16.50;;;;;;;24.54;55.62;101199.41;10620026;27;20044;-79
2022/08/17 21:07:33;;;;;;;23.85;15.20;;;;;;;24.44;56.91;101200.75;10604173;27;20035;-79
2022/08/17 21:12:41;;;;;;;22.23;14.30;;;;;;;24.41;55.80;101189.44;10587833;28;20394;-80
2022/08/17 21:17:59;;;;;;;21.15;13.38;;;;;;;24.33;56.23;101200.50;10605047;28;20501;-78
2022/08/17 21:23:19;;;;;;;23.05;14.07;;;;;;;24.24;56.70;101199.81;10608295;28;20073;-78
2022/08/17 21:28:40;;;;;;;24.92;15.23;;;;;;;24.13;57.01;101209.13;10589169;28;20055;-78
2022/08/17 21:34:14;;;;;;;24.27;14.65;;;;;;;24.10;57.65;101207.03;10605574;28;20059;-77
2022/08/17 21:39:21;;;;;;;22.77;14.48;;;;;;;24.04;57.40;101206.47;10602422;28;20051;-79
2022/08/17 21:44:24;;;;;;;;;;;;;;;23.99;57.59;101204.75;10604120;27;20059;-78
2022/08/17 21:49:27;;;;;;;22.42;14.38;;;;;;;23.95;58.55;101203.84;10567895;28;19930;-78
2022/08/17 21:54:35;;;;;;;21.17;13.80;;;;;;;23.88;58.10;101200.84;10574783;28;20047;-79
2022/08/17 21:59:38;;;;;;;23.25;13.82;;;;;;;23.83;57.69;101203.91;10602580;28;20052;-80
2022/08/17 22:04:41;;;;;;;24.63;14.30;;;;;;;23.81;58.26;101202.63;10567614;28;20445;-82
2022/08/17 22:09:46;;;;;;;21.20;14.23;;;;;;;23.74;58.58;101198.44;10591363;28;20086;-81
2022/08/17 22:15:00;;;;;;;19.50;13.18;;;;;;;23.66;58.73;101199.41;10613087;28;20433;-83
2022/08/17 22:20:14;;;;;;;20.08;11.27;;;;;;;23.64;58.13;101204.56;10575457;28;20032;-79
2022/08/17 22:25:22;;;;;;;20.27;12.63;;;;;;;23.60;58.37;101202.81;10581794;28;20421;-78
2022/08/17 22:31:01;;;;;;;16.77;11.85;;;;;;;23.52;59.05;101198.16;10578623;28;20217;-78
2022/08/17 22:36:20;;;;;;;17.08;12.65;;;;;;;23.50;59.11;101203.31;10581816;28;20048;-78
2022/08/17 22:41:30;;;;;;;17.67;12.07;;;;;;;23.45;59.04;101195.97;10595618;28;20073;-78
2022/08/17 22:46:37;;;;;;;19.08;11.75;;;;;;;23.42;58.71;101197.47;10597648;28;20044;-78
2022/08/17 22:51:40;;;;;;;18.65;12.55;;;;;;;23.36;59.59;101193.28;10556105;28;20062;-78
2022/08/17 23:02:32;;;;;;;21.50;12.38;;;;;;;23.23;59.87;101205.69;10551449;28;20156;-78
2022/08/17 23:07:35;;;;;;;14.60;10.57;;;;;;;23.19;59.46;101203.97;10614024;27;20054;-77
2022/08/17 23:12:38;;;;;;;17.92;11.02;;;;;;;23.18;60.08;101203.13;10593690;28;20039;-78
2022/08/17 23:17:40;;;;;;;17.70;11.82;;;;;;;23.11;60.44;101208.53;10590723;28;20039;-77
2022/08/17 23:22:44;;;;;;;20.38;13.02;;;;;;;23.01;60.36;101201.41;10595292;28;20047;-78
2022/08/17 23:27:47;;;;;;;16.90;11.70;;;;;;;22.90;61.06;101208.66;10573025;28;20031;-79
2022/08/17 23:32:51;;;;;;;17.88;11.68;;;;;;;22.81;60.82;101205.94;10600172;27;20036;-77
2022/08/17 23:37:54;;;;;;;18.48;12.32;;;;;;;22.79;60.60;101207.47;10615712;28;20528;-78
2022/08/17 23:42:56;;;;;;;21.02;12.98;;;;;;;22.73;62.00;101208.84;10609257;28;20046;-77
2022/08/17 23:47:59;;;;;;;18.00;12.00;;;;;;;22.67;61.92;101215.84;10588814;28;20502;-78
2022/08/17 23:53:04;;;;;;;17.63;12.63;;;;;;;22.65;61.11;101207.00;10579359;28;20062;-78
2022/08/17 23:58:06;;;;;;;19.90;11.70;;;;;;;22.58;62.59;101212.38;10594223;28;20052;-77
